sensor_id;sensor_type;location;lat;lon;timestamp;temperature;humidity
65040;HTU21D;51606;45.000;38.612;2023-04-03T04:46:33;11.55;60.81
65040;HTU21D;51606;45.000;38.612;2023-04-03T04:49:00;11.58;60.88
65040;HTU21D;51606;45.000;38.612;2023-04-03T04:51:29;11.59;60.97
65040;HTU21D;51606;45.000;38.612;2023-04-03T04:53:56;11.61;61.02
65040;HTU21D;51606;45.000;38.612;2023-04-03T04:56:23;11.61;61.12
65040;HTU21D;51606;45.000;38.612;2023-04-03T04:58:50;11.62;61.30
65040;HTU21D;51606;45.000;38.612;2023-04-03T05:01:18;11.62;61.45
65040;HTU21D;51606;45.000;38.612;2023-04-03T05:03:53;0.00;61.34
65040;HTU21D;51606;45.000;38.612;2023-04-03T05:06:20;11.63;61.34
65040;HTU21D;51606;45.000;38.612;2023-04-03T05:08:47;11.66;61.42
65040;HTU21D;51606;45.000;38.612;2023-04-03T05:11:13;11.68;61.49
65040;HTU21D;51606;45.000;38.612;2023-04-03T05:13:41;11.71;61.50
65040;HTU21D;51606;45.000;38.612;2023-04-03T05:16:08;11.76;61.55
65040;HTU21D;51606;45.000;38.612;2023-04-03T05:18:34;11.82;61.60
65040;HTU21D;51606;45.000;38.612;2023-04-03T05:21:05;11.85;61.72
65040;HTU21D;51606;45.000;38.612;2023-04-03T05:23:32;11.84;61.94
65040;HTU21D;51606;45.000;38.612;2023-04-03T05:26:01;11.83;62.18
65040;HTU21D;51606;45.000;38.612;2023-04-03T05:28:29;11.84;62.37
65040;HTU21D;51606;45.000;38.612;2023-04-03T05:30:58;11.81;62.82
65040;HTU21D;51606;45.000;38.612;2023-04-03T05:33:29;11.82;62.86
65040;HTU21D;51606;45.000;38.612;2023-04-03T05:36:02;11.83;62.98
65040;HTU21D;51606;45.000;38.612;2023-04-03T05:38:31;11.86;62.99
65040;HTU21D;51606;45.000;38.612;2023-04-03T05:40:58;11.88;62.99
65040;HTU21D;51606;45.000;38.612;2023-04-03T05:43:24;11.92;62.97
65040;HTU21D;51606;45.000;38.612;2023-04-03T05:45:52;11.97;62.95
65040;HTU21D;51606;45.000;38.612;2023-04-03T05:48:21;12.02;62.88
65040;HTU21D;51606;45.000;38.612;2023-04-03T05:50:48;12.06;62.86
65040;HTU21D;51606;45.000;38.612;2023-04-03T05:53:27;12.14;62.88
65040;HTU21D;51606;45.000;38.612;2023-04-03T05:55:55;12.18;62.80
65040;HTU21D;51606;45.000;38.612;2023-04-03T05:58:21;12.23;62.86
65040;HTU21D;51606;45.000;38.612;2023-04-03T06:00:50;12.27;62.90
65040;HTU21D;51606;45.000;38.612;2023-04-03T06:03:17;12.31;62.94
65040;HTU21D;51606;45.000;38.612;2023-04-03T06:05:44;12.31;63.09
65040;HTU21D;51606;45.000;38.612;2023-04-03T06:08:12;12.28;63.37
65040;HTU21D;51606;45.000;38.612;2023-04-03T06:10:38;12.26;63.51
65040;HTU21D;51606;45.000;38.612;2023-04-03T06:13:06;12.22;63.77
65040;HTU21D;51606;45.000;38.612;2023-04-03T06:15:32;12.20;64.07
65040;HTU21D;51606;45.000;38.612;2023-04-03T06:18:00;12.16;64.20
65040;HTU21D;51606;45.000;38.612;2023-04-03T06:20:27;12.15;64.23
65040;HTU21D;51606;45.000;38.612;2023-04-03T06:22:54;12.16;64.27
65040;HTU21D;51606;45.000;38.612;2023-04-03T06:25:20;12.14;64.28
65040;HTU21D;51606;45.000;38.612;2023-04-03T06:27:47;12.10;64.43
65040;HTU21D;51606;45.000;38.612;2023-04-03T06:30:13;12.06;64.62
65040;HTU21D;51606;45.000;38.612;2023-04-03T06:32:40;12.00;64.79
65040;HTU21D;51606;45.000;38.612;2023-04-03T06:35:06;11.96;64.95
65040;HTU21D;51606;45.000;38.612;2023-04-03T06:37:33;11.92;65.06
65040;HTU21D;51606;45.000;38.612;2023-04-03T06:39:59;11.91;65.11
65040;HTU21D;51606;45.000;38.612;2023-04-03T06:42:26;11.91;65.25
65040;HTU21D;51606;45.000;38.612;2023-04-03T06:44:59;11.92;65.30
65040;HTU21D;51606;45.000;38.612;2023-04-03T06:47:26;11.92;65.35
65040;HTU21D;51606;45.000;38.612;2023-04-03T06:49:53;11.97;65.30
65040;HTU21D;51606;45.000;38.612;2023-04-03T06:52:19;12.00;65.26
65040;HTU21D;51606;45.000;38.612;2023-04-03T06:54:46;12.02;65.51
65040;HTU21D;51606;45.000;38.612;2023-04-03T06:57:13;11.97;65.78
65040;HTU21D;51606;45.000;38.612;2023-04-03T06:59:41;11.93;65.94
65040;HTU21D;51606;45.000;38.612;2023-04-03T07:02:09;11.93;66.03
65040;HTU21D;51606;45.000;38.612;2023-04-03T07:04:36;11.96;66.01
65040;HTU21D;51606;45.000;38.612;2023-04-03T07:07:02;11.99;65.95
65040;HTU21D;51606;45.000;38.612;2023-04-03T07:09:29;12.01;65.98
65040;HTU21D;51606;45.000;38.612;2023-04-03T07:11:55;12.02;65.97
65040;HTU21D;51606;45.000;38.612;2023-04-03T07:14:21;12.01;66.07
65040;HTU21D;51606;45.000;38.612;2023-04-03T07:16:48;12.03;66.17
65040;HTU21D;51606;45.000;38.612;2023-04-03T07:19:14;12.03;66.27
65040;HTU21D;51606;45.000;38.612;2023-04-03T07:21:41;12.05;66.40
65040;HTU21D;51606;45.000;38.612;2023-04-03T07:24:07;12.04;66.71
65040;HTU21D;51606;45.000;38.612;2023-04-03T07:26:34;12.02;67.17
65040;HTU21D;51606;45.000;38.612;2023-04-03T07:29:00;12.00;67.59
65040;HTU21D;51606;45.000;38.612;2023-04-03T07:31:26;11.99;68.05
65040;HTU21D;51606;45.000;38.612;2023-04-03T07:33:53;11.98;68.69
65040;HTU21D;51606;45.000;38.612;2023-04-03T07:36:21;11.96;69.23
65040;HTU21D;51606;45.000;38.612;2023-04-03T07:38:48;11.94;69.45
65040;HTU21D;51606;45.000;38.612;2023-04-03T07:41:16;11.93;69.82
65040;HTU21D;51606;45.000;38.612;2023-04-03T07:43:44;11.90;70.04
65040;HTU21D;51606;45.000;38.612;2023-04-03T07:46:11;11.87;70.29
65040;HTU21D;51606;45.000;38.612;2023-04-03T07:48:37;11.86;70.70
65040;HTU21D;51606;45.000;38.612;2023-04-03T07:51:04;11.82;70.87
65040;HTU21D;51606;45.000;38.612;2023-04-03T07:53:31;11.78;70.81
65040;HTU21D;51606;45.000;38.612;2023-04-03T07:55:58;11.78;71.38
65040;HTU21D;51606;45.000;38.612;2023-04-03T07:58:25;11.74;71.38
65040;HTU21D;51606;45.000;38.612;2023-04-03T08:00:52;11.75;71.56
65040;HTU21D;51606;45.000;38.612;2023-04-03T08:03:18;11.75;71.60
65040;HTU21D;51606;45.000;38.612;2023-04-03T08:05:47;11.74;71.70
65040;HTU21D;51606;45.000;38.612;2023-04-03T08:08:16;11.75;71.96
65040;HTU21D;51606;45.000;38.612;2023-04-03T08:10:43;11.77;72.13
65040;HTU21D;51606;45.000;38.612;2023-04-03T08:13:13;11.79;72.13
65040;HTU21D;51606;45.000;38.612;2023-04-03T08:15:40;11.83;72.25
65040;HTU21D;51606;45.000;38.612;2023-04-03T08:18:06;11.79;72.30
65040;HTU21D;51606;45.000;38.612;2023-04-03T08:20:32;11.83;72.80
65040;HTU21D;51606;45.000;38.612;2023-04-03T08:22:58;11.84;72.90
65040;HTU21D;51606;45.000;38.612;2023-04-03T08:25:25;11.85;72.96
65040;HTU21D;51606;45.000;38.612;2023-04-03T08:27:52;11.88;72.90
65040;HTU21D;51606;45.000;38.612;2023-04-03T08:30:18;11.94;73.35
65040;HTU21D;51606;45.000;38.612;2023-04-03T08:32:45;11.99;73.15
65040;HTU21D;51606;45.000;38.612;2023-04-03T08:35:12;12.08;73.33
65040;HTU21D;51606;45.000;38.612;2023-04-03T08:37:39;12.17;73.28
65040;HTU21D;51606;45.000;38.612;2023-04-03T08:40:07;12.31;73.44
65040;HTU21D;51606;45.000;38.612;2023-04-03T08:45:12;12.66;73.45
65040;HTU21D;51606;45.000;38.612;2023-04-03T08:48:07;12.87;73.22
65040;HTU21D;51606;45.000;38.612;2023-04-03T08:50:42;13.11;72.85
65040;HTU21D;51606;45.000;38.612;2023-04-03T08:53:16;13.32;72.67
65040;HTU21D;51606;45.000;38.612;2023-04-03T08:55:47;13.50;72.58
65040;HTU21D;51606;45.000;38.612;2023-04-03T08:58:22;13.74;72.54
65040;HTU21D;51606;45.000;38.612;2023-04-03T09:00:56;14.19;72.09
65040;HTU21D;51606;45.000;38.612;2023-04-03T09:03:23;14.58;71.65
65040;HTU21D;51606;45.000;38.612;2023-04-03T09:06:11;15.08;71.42
65040;HTU21D;51606;45.000;38.612;2023-04-03T09:08:47;16.04;70.68
65040;HTU21D;51606;45.000;38.612;2023-04-03T09:11:25;16.77;69.81
65040;HTU21D;51606;45.000;38.612;2023-04-03T09:14:07;17.54;69.25
65040;HTU21D;51606;45.000;38.612;2023-04-03T09:16:56;18.35;68.30
65040;HTU21D;51606;45.000;38.612;2023-04-03T09:19:38;18.58;67.88
65040;HTU21D;51606;45.000;38.612;2023-04-03T09:22:19;18.79;67.68
65040;HTU21D;51606;45.000;38.612;2023-04-03T09:24:52;18.86;67.36
65040;HTU21D;51606;45.000;38.612;2023-04-03T09:27:20;18.95;67.30
65040;HTU21D;51606;45.000;38.612;2023-04-03T09:29:46;19.15;66.56
65040;HTU21D;51606;45.000;38.612;2023-04-03T09:32:33;19.53;65.75
65040;HTU21D;51606;45.000;38.612;2023-04-03T09:37:48;20.41;64.08
65040;HTU21D;51606;45.000;38.612;2023-04-03T09:40:33;20.47;63.50
65040;HTU21D;51606;45.000;38.612;2023-04-03T09:43:20;20.78;63.42
65040;HTU21D;51606;45.000;38.612;2023-04-03T09:45:48;21.20;62.63
65040;HTU21D;51606;45.000;38.612;2023-04-03T09:48:20;21.46;62.21
65040;HTU21D;51606;45.000;38.612;2023-04-03T09:53:39;21.90;61.68
65040;HTU21D;51606;45.000;38.612;2023-04-03T09:56:18;22.16;61.38
65040;HTU21D;51606;45.000;38.612;2023-04-03T10:01:32;22.38;61.17
65040;HTU21D;51606;45.000;38.612;2023-04-03T10:04:16;22.49;61.08
65040;HTU21D;51606;45.000;38.612;2023-04-03T10:06:48;22.55;60.68
65040;HTU21D;51606;45.000;38.612;2023-04-03T10:09:30;22.51;60.60
65040;HTU21D;51606;45.000;38.612;2023-04-03T10:12:10;22.42;60.63
65040;HTU21D;51606;45.000;38.612;2023-04-03T10:15:00;22.28;60.44
65040;HTU21D;51606;45.000;38.612;2023-04-03T10:29:02;22.08;58.93
65040;HTU21D;51606;45.000;38.612;2023-04-03T10:34:38;22.14;58.71
65040;HTU21D;51606;45.000;38.612;2023-04-03T10:37:19;22.17;58.46
65040;HTU21D;51606;45.000;38.612;2023-04-03T10:57:06;22.37;56.88
65040;HTU21D;51606;45.000;38.612;2023-04-03T11:00:07;22.37;56.64
65040;HTU21D;51606;45.000;38.612;2023-04-03T11:03:14;22.32;56.12
65040;HTU21D;51606;45.000;38.612;2023-04-03T11:05:47;22.26;56.49
65040;HTU21D;51606;45.000;38.612;2023-04-03T11:08:28;22.24;56.27
65040;HTU21D;51606;45.000;38.612;2023-04-03T11:11:31;22.27;55.78
65040;HTU21D;51606;45.000;38.612;2023-04-03T11:14:02;22.28;55.90
65040;HTU21D;51606;45.000;38.612;2023-04-03T11:16:33;22.27;56.00
65040;HTU21D;51606;45.000;38.612;2023-04-03T11:19:11;22.28;56.05
65040;HTU21D;51606;45.000;38.612;2023-04-03T11:21:42;22.23;55.98
65040;HTU21D;51606;45.000;38.612;2023-04-03T11:24:20;22.19;55.75
65040;HTU21D;51606;45.000;38.612;2023-04-03T11:26:49;22.10;55.55
65040;HTU21D;51606;45.000;38.612;2023-04-03T11:29:20;22.09;55.51
65040;HTU21D;51606;45.000;38.612;2023-04-03T11:34:50;22.03;55.45
65040;HTU21D;51606;45.000;38.612;2023-04-03T11:37:27;21.96;55.33
65040;HTU21D;51606;45.000;38.612;2023-04-03T11:39:58;21.93;55.14
65040;HTU21D;51606;45.000;38.612;2023-04-03T11:50:45;21.97;55.20
65040;HTU21D;51606;45.000;38.612;2023-04-03T11:55:52;21.88;55.04
65040;HTU21D;51606;45.000;38.612;2023-04-03T11:58:25;21.78;55.16
65040;HTU21D;51606;45.000;38.612;2023-04-03T12:01:01;21.63;55.18
65040;HTU21D;51606;45.000;38.612;2023-04-03T12:16:42;21.29;55.10
65040;HTU21D;51606;45.000;38.612;2023-04-03T12:19:32;21.30;54.97
65040;HTU21D;51606;45.000;38.612;2023-04-03T12:24:34;21.19;54.98
65040;HTU21D;51606;45.000;38.612;2023-04-03T12:27:25;21.14;54.78
65040;HTU21D;51606;45.000;38.612;2023-04-03T12:41:19;20.89;54.87
65040;HTU21D;51606;45.000;38.612;2023-04-03T12:46:47;20.77;54.84
65040;HTU21D;51606;45.000;38.612;2023-04-03T12:49:40;20.73;54.68
65040;HTU21D;51606;45.000;38.612;2023-04-03T12:52:41;20.66;54.62
65040;HTU21D;51606;45.000;38.612;2023-04-03T12:55:17;20.65;54.48
65040;HTU21D;51606;45.000;38.612;2023-04-03T12:57:44;20.58;54.65
65040;HTU21D;51606;45.000;38.612;2023-04-03T13:00:33;20.44;54.86
65040;HTU21D;51606;45.000;38.612;2023-04-03T13:03:05;20.39;54.90
65040;HTU21D;51606;45.000;38.612;2023-04-03T13:05:32;20.34;54.84
65040;HTU21D;51606;45.000;38.612;2023-04-03T13:08:01;20.36;54.65
65040;HTU21D;51606;45.000;38.612;2023-04-03T13:10:29;20.31;54.71
65040;HTU21D;51606;45.000;38.612;2023-04-03T13:13:06;20.30;54.77
65040;HTU21D;51606;45.000;38.612;2023-04-03T13:15:45;20.29;54.78
65040;HTU21D;51606;45.000;38.612;2023-04-03T13:18:27;20.26;54.74
65040;HTU21D;51606;45.000;38.612;2023-04-03T13:20:58;20.21;54.85
65040;HTU21D;51606;45.000;38.612;2023-04-03T13:23:27;20.18;54.82
65040;HTU21D;51606;45.000;38.612;2023-04-03T13:25:53;20.12;54.89
65040;HTU21D;51606;45.000;38.612;2023-04-03T13:28:23;19.97;54.97
65040;HTU21D;51606;45.000;38.612;2023-04-03T13:31:14;19.70;55.40
65040;HTU21D;51606;45.000;38.612;2023-04-03T13:34:02;19.58;55.23
65040;HTU21D;51606;45.000;38.612;2023-04-03T13:36:39;19.36;55.52
65040;HTU21D;51606;45.000;38.612;2023-04-03T13:39:22;19.09;55.83
65040;HTU21D;51606;45.000;38.612;2023-04-03T13:41:54;19.01;55.90
65040;HTU21D;51606;45.000;38.612;2023-04-03T13:46:53;19.02;55.90
65040;HTU21D;51606;45.000;38.612;2023-04-03T13:51:54;18.68;56.23
65040;HTU21D;51606;45.000;38.612;2023-04-03T13:54:24;18.58;56.32
65040;HTU21D;51606;45.000;38.612;2023-04-03T13:56:57;18.40;56.43
65040;HTU21D;51606;45.000;38.612;2023-04-03T13:59:30;18.24;56.55
65040;HTU21D;51606;45.000;38.612;2023-04-03T14:07:12;17.79;56.98
65040;HTU21D;51606;45.000;38.612;2023-04-03T14:09:39;17.49;57.30
65040;HTU21D;51606;45.000;38.612;2023-04-03T14:12:08;17.16;57.83
65040;HTU21D;51606;45.000;38.612;2023-04-03T14:14:38;16.82;58.30
65040;HTU21D;51606;45.000;38.612;2023-04-03T14:17:14;16.69;58.64
65040;HTU21D;51606;45.000;38.612;2023-04-03T14:19:42;16.56;58.72
65040;HTU21D;51606;45.000;38.612;2023-04-03T14:22:19;16.46;58.98
65040;HTU21D;51606;45.000;38.612;2023-04-03T14:24:48;16.35;58.98
65040;HTU21D;51606;45.000;38.612;2023-04-03T14:27:27;16.22;59.18
65040;HTU21D;51606;45.000;38.612;2023-04-03T14:29:56;16.05;59.29
65040;HTU21D;51606;45.000;38.612;2023-04-03T14:32:25;15.95;59.43
65040;HTU21D;51606;45.000;38.612;2023-04-03T14:34:51;15.88;59.50
65040;HTU21D;51606;45.000;38.612;2023-04-03T14:37:21;15.83;59.51
65040;HTU21D;51606;45.000;38.612;2023-04-03T14:39:49;15.81;59.54
65040;HTU21D;51606;45.000;38.612;2023-04-03T14:42:19;15.76;59.69
65040;HTU21D;51606;45.000;38.612;2023-04-03T14:44:47;15.72;59.79
65040;HTU21D;51606;45.000;38.612;2023-04-03T14:47:16;15.63;60.06
65040;HTU21D;51606;45.000;38.612;2023-04-03T14:49:45;15.56;60.17
65040;HTU21D;51606;45.000;38.612;2023-04-03T14:52:29;15.55;60.25
65040;HTU21D;51606;45.000;38.612;2023-04-03T14:54:57;15.44;60.35
65040;HTU21D;51606;45.000;38.612;2023-04-03T14:57:25;15.31;60.87
65040;HTU21D;51606;45.000;38.612;2023-04-03T14:59:52;15.16;61.12
65040;HTU21D;51606;45.000;38.612;2023-04-03T15:02:35;15.04;61.15
65040;HTU21D;51606;45.000;38.612;2023-04-03T15:05:06;14.95;61.22
65040;HTU21D;51606;45.000;38.612;2023-04-03T15:07:39;14.86;61.38
65040;HTU21D;51606;45.000;38.612;2023-04-03T15:10:18;14.74;61.70
65040;HTU21D;51606;45.000;38.612;2023-04-03T15:12:46;14.58;61.86
65040;HTU21D;51606;45.000;38.612;2023-04-03T15:15:14;14.44;62.20
65040;HTU21D;51606;45.000;38.612;2023-04-03T15:17:42;14.33;62.50
65040;HTU21D;51606;45.000;38.612;2023-04-03T15:20:20;14.25;62.97
65040;HTU21D;51606;45.000;38.612;2023-04-03T15:22:46;14.14;62.99
65040;HTU21D;51606;45.000;38.612;2023-04-03T15:25:12;14.06;63.35
65040;HTU21D;51606;45.000;38.612;2023-04-03T15:27:39;13.96;63.57
65040;HTU21D;51606;45.000;38.612;2023-04-03T15:30:15;13.88;63.76
65040;HTU21D;51606;45.000;38.612;2023-04-03T15:32:41;13.76;63.95
65040;HTU21D;51606;45.000;38.612;2023-04-03T15:35:08;13.67;64.19
65040;HTU21D;51606;45.000;38.612;2023-04-03T15:37:34;13.61;64.50
65040;HTU21D;51606;45.000;38.612;2023-04-03T15:40:01;13.52;64.66
65040;HTU21D;51606;45.000;38.612;2023-04-03T15:42:28;13.47;64.75
65040;HTU21D;51606;45.000;38.612;2023-04-03T15:44:55;13.37;64.68
65040;HTU21D;51606;45.000;38.612;2023-04-03T15:47:22;13.30;64.74
65040;HTU21D;51606;45.000;38.612;2023-04-03T15:49:48;13.23;64.90
65040;HTU21D;51606;45.000;38.612;2023-04-03T15:52:15;13.17;65.00
65040;HTU21D;51606;45.000;38.612;2023-04-03T15:54:42;13.10;64.98
65040;HTU21D;51606;45.000;38.612;2023-04-03T15:57:09;13.05;64.90
65040;HTU21D;51606;45.000;38.612;2023-04-03T15:59:36;13.01;64.95
65040;HTU21D;51606;45.000;38.612;2023-04-03T16:02:04;12.95;65.13
65040;HTU21D;51606;45.000;38.612;2023-04-03T16:04:33;12.90;65.14
65040;HTU21D;51606;45.000;38.612;2023-04-03T16:07:03;12.84;65.40
65040;HTU21D;51606;45.000;38.612;2023-04-03T16:09:31;12.74;65.55
65040;HTU21D;51606;45.000;38.612;2023-04-03T16:11:58;12.67;65.74
65040;HTU21D;51606;45.000;38.612;2023-04-03T16:14:26;12.61;65.98
65040;HTU21D;51606;45.000;38.612;2023-04-03T16:16:54;12.59;66.17
65040;HTU21D;51606;45.000;38.612;2023-04-03T16:19:21;12.52;66.17
65040;HTU21D;51606;45.000;38.612;2023-04-03T16:21:47;12.49;66.56
65040;HTU21D;51606;45.000;38.612;2023-04-03T16:24:14;12.47;66.72
65040;HTU21D;51606;45.000;38.612;2023-04-03T16:26:40;12.43;66.76
65040;HTU21D;51606;45.000;38.612;2023-04-03T16:29:07;12.40;66.85
65040;HTU21D;51606;45.000;38.612;2023-04-03T16:31:33;12.35;67.01
65040;HTU21D;51606;45.000;38.612;2023-04-03T16:34:00;12.29;66.94
65040;HTU21D;51606;45.000;38.612;2023-04-03T16:36:27;12.22;66.94
65040;HTU21D;51606;45.000;38.612;2023-04-03T16:38:53;12.17;66.97
65040;HTU21D;51606;45.000;38.612;2023-04-03T16:41:20;12.12;67.03
65040;HTU21D;51606;45.000;38.612;2023-04-03T16:43:46;12.05;66.98
65040;HTU21D;51606;45.000;38.612;2023-04-03T16:46:13;12.00;66.98
65040;HTU21D;51606;45.000;38.612;2023-04-03T16:48:39;11.94;66.98
65040;HTU21D;51606;45.000;38.612;2023-04-03T16:51:06;11.89;66.97
65040;HTU21D;51606;45.000;38.612;2023-04-03T16:53:32;11.85;66.95
65040;HTU21D;51606;45.000;38.612;2023-04-03T16:55:58;11.84;66.92
65040;HTU21D;51606;45.000;38.612;2023-04-03T16:58:25;11.82;66.91
65040;HTU21D;51606;45.000;38.612;2023-04-03T17:00:52;11.77;66.94
65040;HTU21D;51606;45.000;38.612;2023-04-03T17:03:19;11.73;67.01
65040;HTU21D;51606;45.000;38.612;2023-04-03T17:05:48;11.69;67.05
65040;HTU21D;51606;45.000;38.612;2023-04-03T17:08:17;11.66;67.04
65040;HTU21D;51606;45.000;38.612;2023-04-03T17:10:43;11.62;67.05
65040;HTU21D;51606;45.000;38.612;2023-04-03T17:13:10;11.60;67.20
65040;HTU21D;51606;45.000;38.612;2023-04-03T17:15:38;11.54;67.33
65040;HTU21D;51606;45.000;38.612;2023-04-03T17:18:06;11.44;67.58
65040;HTU21D;51606;45.000;38.612;2023-04-03T17:20:33;11.37;67.68
65040;HTU21D;51606;45.000;38.612;2023-04-03T17:22:59;11.29;67.88
65040;HTU21D;51606;45.000;38.612;2023-04-03T17:25:26;11.24;68.06
65040;HTU21D;51606;45.000;38.612;2023-04-03T17:27:52;11.15;68.08
65040;HTU21D;51606;45.000;38.612;2023-04-03T17:30:19;11.05;68.24
65040;HTU21D;51606;45.000;38.612;2023-04-03T17:32:45;10.95;68.35
65040;HTU21D;51606;45.000;38.612;2023-04-03T17:35:12;10.86;68.43
65040;HTU21D;51606;45.000;38.612;2023-04-03T17:37:39;10.75;68.54
65040;HTU21D;51606;45.000;38.612;2023-04-03T17:40:06;10.67;68.61
65040;HTU21D;51606;45.000;38.612;2023-04-03T17:42:33;10.57;68.67
65040;HTU21D;51606;45.000;38.612;2023-04-03T17:44:59;10.51;68.75
65040;HTU21D;51606;45.000;38.612;2023-04-03T17:47:26;10.43;68.78
65040;HTU21D;51606;45.000;38.612;2023-04-03T17:49:53;10.36;68.78
65040;HTU21D;51606;45.000;38.612;2023-04-03T17:52:19;10.29;68.76
65040;HTU21D;51606;45.000;38.612;2023-04-03T17:54:50;10.21;68.83
65040;HTU21D;51606;45.000;38.612;2023-04-03T17:57:16;10.12;68.94
65040;HTU21D;51606;45.000;38.612;2023-04-03T17:59:43;9.99;69.06
65040;HTU21D;51606;45.000;38.612;2023-04-03T18:02:09;9.88;69.22
65040;HTU21D;51606;45.000;38.612;2023-04-03T18:04:36;9.78;69.37
65040;HTU21D;51606;45.000;38.612;2023-04-03T18:07:03;9.65;69.49
65040;HTU21D;51606;45.000;38.612;2023-04-03T18:09:33;9.57;69.61
65040;HTU21D;51606;45.000;38.612;2023-04-03T18:12:02;9.51;69.67
65040;HTU21D;51606;45.000;38.612;2023-04-03T18:14:32;9.47;69.71
65040;HTU21D;51606;45.000;38.612;2023-04-03T18:16:59;9.45;69.65
65040;HTU21D;51606;45.000;38.612;2023-04-03T18:19:26;9.41;69.68
65040;HTU21D;51606;45.000;38.612;2023-04-03T18:21:56;9.40;69.68
65040;HTU21D;51606;45.000;38.612;2023-04-03T18:24:24;9.39;69.65
65040;HTU21D;51606;45.000;38.612;2023-04-03T18:26:57;9.35;69.74
65040;HTU21D;51606;45.000;38.612;2023-04-03T18:29:27;9.27;69.88
65040;HTU21D;51606;45.000;38.612;2023-04-03T18:31:56;9.22;70.00
65040;HTU21D;51606;45.000;38.612;2023-04-03T18:34:23;9.17;70.03
65040;HTU21D;51606;45.000;38.612;2023-04-03T18:36:50;9.10;70.10
65040;HTU21D;51606;45.000;38.612;2023-04-03T18:39:17;9.05;70.03
65040;HTU21D;51606;45.000;38.612;2023-04-03T18:41:44;9.01;70.04
65040;HTU21D;51606;45.000;38.612;2023-04-03T18:44:14;8.98;70.16
65040;HTU21D;51606;45.000;38.612;2023-04-03T18:46:43;9.00;70.11
65040;HTU21D;51606;45.000;38.612;2023-04-03T18:49:10;8.98;70.01
65040;HTU21D;51606;45.000;38.612;2023-04-03T18:51:37;8.94;70.00
65040;HTU21D;51606;45.000;38.612;2023-04-03T18:54:07;8.88;70.03
65040;HTU21D;51606;45.000;38.612;2023-04-03T18:56:35;8.80;70.12
65040;HTU21D;51606;45.000;38.612;2023-04-03T18:59:02;8.71;70.18
65040;HTU21D;51606;45.000;38.612;2023-04-03T19:01:29;8.60;70.32
65040;HTU21D;51606;45.000;38.612;2023-04-03T19:03:56;8.47;70.43
65040;HTU21D;51606;45.000;38.612;2023-04-03T19:06:22;8.35;70.55
65040;HTU21D;51606;45.000;38.612;2023-04-03T19:08:49;8.24;70.64
65040;HTU21D;51606;45.000;38.612;2023-04-03T19:11:16;8.16;70.75
65040;HTU21D;51606;45.000;38.612;2023-04-03T19:13:43;8.08;70.80
65040;HTU21D;51606;45.000;38.612;2023-04-03T19:16:10;8.04;70.80
65040;HTU21D;51606;45.000;38.612;2023-04-03T19:18:37;7.98;70.77
65040;HTU21D;51606;45.000;38.612;2023-04-03T19:23:48;7.89;70.73
65040;HTU21D;51606;45.000;38.612;2023-04-03T19:26:14;7.85;70.74
65040;HTU21D;51606;45.000;38.612;2023-04-03T19:28:41;7.82;70.81
65040;HTU21D;51606;45.000;38.612;2023-04-03T19:31:12;7.83;70.81
65040;HTU21D;51606;45.000;38.612;2023-04-03T19:33:39;7.83;70.80
65040;HTU21D;51606;45.000;38.612;2023-04-03T19:36:07;7.89;70.77
65040;HTU21D;51606;45.000;38.612;2023-04-03T19:38:35;7.94;70.71
65040;HTU21D;51606;45.000;38.612;2023-04-03T19:41:04;7.99;70.65
65040;HTU21D;51606;45.000;38.612;2023-04-03T19:43:31;8.00;70.58
65040;HTU21D;51606;45.000;38.612;2023-04-03T19:45:57;8.00;70.59
65040;HTU21D;51606;45.000;38.612;2023-04-03T19:48:24;7.98;70.64
65040;HTU21D;51606;45.000;38.612;2023-04-03T19:50:50;7.92;70.61
65040;HTU21D;51606;45.000;38.612;2023-04-03T19:53:17;7.82;70.72
65040;HTU21D;51606;45.000;38.612;2023-04-03T19:55:47;7.72;70.84
65040;HTU21D;51606;45.000;38.612;2023-04-03T19:58:14;7.65;70.94
65040;HTU21D;51606;45.000;38.612;2023-04-03T20:00:41;7.57;71.00
65040;HTU21D;51606;45.000;38.612;2023-04-03T20:03:07;7.46;71.11
65040;HTU21D;51606;45.000;38.612;2023-04-03T20:05:34;7.35;71.24
65040;HTU21D;51606;45.000;38.612;2023-04-03T20:08:00;7.28;71.29
65040;HTU21D;51606;45.000;38.612;2023-04-03T20:10:27;7.22;71.34
65040;HTU21D;51606;45.000;38.612;2023-04-03T20:12:53;7.13;71.35
65040;HTU21D;51606;45.000;38.612;2023-04-03T20:15:20;7.08;71.41
65040;HTU21D;51606;45.000;38.612;2023-04-03T20:17:47;6.99;71.47
65040;HTU21D;51606;45.000;38.612;2023-04-03T20:20:14;6.93;71.55
65040;HTU21D;51606;45.000;38.612;2023-04-03T20:22:40;6.86;71.58
65040;HTU21D;51606;45.000;38.612;2023-04-03T20:25:11;6.85;71.59
65040;HTU21D;51606;45.000;38.612;2023-04-03T20:27:38;6.83;71.54
65040;HTU21D;51606;45.000;38.612;2023-04-03T20:30:10;6.78;71.57
65040;HTU21D;51606;45.000;38.612;2023-04-03T20:32:39;6.68;71.67
65040;HTU21D;51606;45.000;38.612;2023-04-03T20:35:06;6.57;71.79
65040;HTU21D;51606;45.000;38.612;2023-04-03T20:37:32;6.48;71.91
65040;HTU21D;51606;45.000;38.612;2023-04-03T20:39:59;6.39;72.02
65040;HTU21D;51606;45.000;38.612;2023-04-03T20:42:25;6.34;72.03
65040;HTU21D;51606;45.000;38.612;2023-04-03T20:44:52;6.30;72.05
65040;HTU21D;51606;45.000;38.612;2023-04-03T20:47:18;6.29;72.05
65040;HTU21D;51606;45.000;38.612;2023-04-03T20:49:45;6.30;72.00
65040;HTU21D;51606;45.000;38.612;2023-04-03T20:52:11;6.31;72.00
65040;HTU21D;51606;45.000;38.612;2023-04-03T20:54:37;6.35;71.91
65040;HTU21D;51606;45.000;38.612;2023-04-03T20:57:05;6.41;71.82
65040;HTU21D;51606;45.000;38.612;2023-04-03T20:59:31;6.44;71.70
65040;HTU21D;51606;45.000;38.612;2023-04-03T21:01:59;6.45;71.71
65040;HTU21D;51606;45.000;38.612;2023-04-03T21:04:36;6.45;71.71
